Time;durP1;ratioP1;P1;durP2;ratioP2;P2;SDS_P1;SDS_P2;PMS_P1;PMS_P2;Temp;Humidity;BMP_temperature;BMP_pressure;BME280_temperature;BME280_humidity;BME280_pressure;Samples;Min_cycle;Max_cycle;Signal;HPM_P1;HPM_P2
2023/01/02 00:00:39;;;;;;;;;;;;;;;;;;5100279;27;1468;-69
2023/01/02 00:03:04;;;;;;;;;;;;;;;;;;5116730;27;1191;-69
2023/01/02 00:05:29;;;;;;;;;;;;;;;;;;5135430;27;760;-70
2023/01/02 00:07:54;;;;;;;;;;;;;;;;;;5099893;27;1901;-70
2023/01/02 00:10:20;;;;;;;;;;;;;;;;;;5116512;27;1269;-69
2023/01/02 00:12:45;;;;;;;;;;;;;;;;;;5117056;27;925;-69
2023/01/02 00:15:10;;;;;;;;;;;;;;;;;;5099713;27;1214;-69
2023/01/02 00:17:36;;;;;;;;;;;;;;;;;;5099898;27;1271;-69
2023/01/02 00:20:01;;;;;;;;;;;;;;;;;;5116430;27;809;-69
2023/01/02 00:22:26;;;;;;;;;;;;;;;;;;5100527;27;1391;-70
2023/01/02 00:24:52;;;;;;;;;;;;;;;;;;5100059;27;1188;-69
2023/01/02 00:27:17;;;;;;;;;;;;;;;;;;5116227;27;1973;-69
2023/01/02 00:29:42;;;;;;;;;;;;;;;;;;5116379;27;1052;-69
2023/01/02 00:32:08;;;;;;;;;;;;;;;;;;5116535;27;1332;-69
2023/01/02 00:34:33;;;;;;;;;;;;;;;;;;5116454;27;1263;-69
2023/01/02 00:36:58;;;;;;;;;;;;;;;;;;5097057;28;1131;-69
2023/01/02 00:39:24;;;;;;;;;;;;;;;;;;5114689;28;1039;-69
2023/01/02 00:41:49;;;;;;;;;;;;;;;;;;5079238;28;1127;-69
2023/01/02 00:44:15;;;;;;;;;;;;;;;;;;5096191;28;889;-69
2023/01/02 00:46:40;;;;;;;;;;;;;;;;;;5079838;28;1123;-69
2023/01/02 00:49:05;;;;;;;;;;;;;;;;;;5095908;28;1942;-69
2023/01/02 00:51:30;;;;;;;;;;;;;;;;;;5096912;28;1353;-69
2023/01/02 00:53:56;;;;;;;;;;;;;;;;;;5094330;28;1199;-69
2023/01/02 00:56:21;;;;;;;;;;;;;;;;;;5081130;28;1215;-69
2023/01/02 00:58:47;;;;;;;;;;;;;;;;;;5121902;27;1155;-69
2023/01/02 01:01:12;;;;;;;;;;;;;;;;;;5110410;27;1193;-69
2023/01/02 01:03:37;;;;;;;;;;;;;;;;;;5132283;27;1262;-69
2023/01/02 01:06:09;;;;;;;;;;;;;;;;;;5113100;27;1333;-69
2023/01/02 01:08:35;;;;;;;;;;;;;;;;;;5100144;28;1910;-69
2023/01/02 01:11:08;;;;;;;;;;;;;;;;;;5113611;28;825;-68
2023/01/02 01:13:33;;;;;;;;;;;;;;;;;;5113748;28;837;-71
2023/01/02 01:16:02;;;;;;;;;;;;;;;;;;5113088;28;786;-71
2023/01/02 01:18:28;;;;;;;;;;;;;;;;;;5094564;28;821;-69
2023/01/02 01:20:53;;;;;;;;;;;;;;;;;;5113494;28;832;-69
2023/01/02 01:23:18;;;;;;;;;;;;;;;;;;5113564;28;900;-70
2023/01/02 01:25:43;;;;;;;;;;;;;;;;;;5113547;28;861;-69
2023/01/02 01:28:09;;;;;;;;;;;;;;;;;;5094620;28;1901;-69
2023/01/02 01:30:34;;;;;;;;;;;;;;;;;;5094686;28;1183;-68
2023/01/02 01:32:59;;;;;;;;;;;;;;;;;;5094984;28;1412;-69
2023/01/02 01:35:24;;;;;;;;;;;;;;;;;;5078431;28;1188;-68
2023/01/02 01:37:50;;;;;;;;;;;;;;;;;;5112990;28;824;-70
2023/01/02 01:40:15;;;;;;;;;;;;;;;;;;5113165;28;828;-69
2023/01/02 01:42:40;;;;;;;;;;;;;;;;;;5094746;28;1434;-70
2023/01/02 01:45:11;;;;;;;;;;;;;;;;;;5095004;28;750;-69
2023/01/02 01:47:43;;;;;;;;;;;;;;;;;;5114889;28;1886;-69
2023/01/02 01:50:18;;;;;;;;;;;;;;;;;;5096667;28;1191;-69
2023/01/02 01:53:03;;;;;;;;;;;;;;;;;;5097156;28;1278;-69
2023/01/02 01:55:41;;;;;;;;;;;;;;;;;;5081244;28;1197;-69
2023/01/02 01:58:07;;;;;;;;;;;;;;;;;;5096313;28;1420;-69
2023/01/02 02:00:33;;;;;;;;;;;;;;;;;;5096462;28;1072;-69
2023/01/02 02:03:01;;;;;;;;;;;;;;;;;;5114964;28;873;-69
2023/01/02 02:05:28;;;;;;;;;;;;;;;;;;5114819;28;900;-69
2023/01/02 02:08:02;;;;;;;;;;;;;;;;;;5114375;28;1898;-70
2023/01/02 02:10:27;;;;;;;;;;;;;;;;;;5113792;28;943;-69
2023/01/02 02:12:53;;;;;;;;;;;;;;;;;;5096282;28;1357;-69
2023/01/02 02:15:20;;;;;;;;;;;;;;;;;;5079475;28;1247;-69
2023/01/02 02:17:48;;;;;;;;;;;;;;;;;;5097365;28;1199;-69
2023/01/02 02:20:19;;;;;;;;;;;;;;;;;;5096660;28;1326;-69
2023/01/02 02:23:03;;;;;;;;;;;;;;;;;;5097874;28;1124;-70
2023/01/02 02:25:55;;;;;;;;;;;;;;;;;;5101820;28;1167;-70
2023/01/02 02:28:29;;;;;;;;;;;;;;;;;;5120101;28;1969;-69
2023/01/02 02:31:06;;;;;;;;;;;;;;;;;;5116055;28;1237;-69
2023/01/02 02:33:34;;;;;;;;;;;;;;;;;;5096742;28;1376;-69
2023/01/02 02:36:02;;;;;;;;;;;;;;;;;;5095563;28;1302;-69
2023/01/02 02:38:31;;;;;;;;;;;;;;;;;;5096079;28;1243;-69
2023/01/02 02:41:02;;;;;;;;;;;;;;;;;;5112597;28;865;-69
2023/01/02 02:43:27;;;;;;;;;;;;;;;;;;5111487;28;931;-69
2023/01/02 02:46:08;;;;;;;;;;;;;;;;;;5093237;28;1175;-70
2023/01/02 02:48:42;;;;;;;;;;;;;;;;;;5111679;28;1905;-70
2023/01/02 02:51:14;;;;;;;;;;;;;;;;;;5112023;28;904;-70
2023/01/02 02:53:44;;;;;;;;;;;;;;;;;;5093105;28;1191;-70
2023/01/02 02:56:10;;;;;;;;;;;;;;;;;;5093392;28;1188;-70
2023/01/02 02:58:37;;;;;;;;;;;;;;;;;;5092986;28;1079;-70
2023/01/02 03:01:04;;;;;;;;;;;;;;;;;;5092932;28;1177;-70
2023/01/02 03:03:30;;;;;;;;;;;;;;;;;;5092899;28;1432;-70
2023/01/02 03:06:14;;;;;;;;;;;;;;;;;;5093038;28;1294;-70
2023/01/02 03:08:42;;;;;;;;;;;;;;;;;;5093285;28;1960;-70
2023/01/02 03:11:09;;;;;;;;;;;;;;;;;;5111679;28;840;-70
2023/01/02 03:13:37;;;;;;;;;;;;;;;;;;5093091;28;1023;-70
2023/01/02 03:16:20;;;;;;;;;;;;;;;;;;5111771;28;959;-70
2023/01/02 03:18:56;;;;;;;;;;;;;;;;;;5093205;28;1199;-70
2023/01/02 03:21:27;;;;;;;;;;;;;;;;;;5111479;28;908;-70
2023/01/02 03:23:55;;;;;;;;;;;;;;;;;;5114353;28;1026;-78
2023/01/02 03:26:24;;;;;;;;;;;;;;;;;;5098701;28;1299;-78
2023/01/02 03:28:51;;;;;;;;;;;;;;;;;;5117007;28;1906;-78
2023/01/02 03:31:18;;;;;;;;;;;;;;;;;;5098199;28;1326;-78
2023/01/02 03:33:49;;;;;;;;;;;;;;;;;;5098263;28;1289;-79
2023/01/02 03:36:19;;;;;;;;;;;;;;;;;;5098190;28;1227;-78
2023/01/02 03:38:51;;;;;;;;;;;;;;;;;;5116234;28;1043;-78
2023/01/02 03:41:22;;;;;;;;;;;;;;;;;;5097680;28;1572;-79
2023/01/02 03:43:49;;;;;;;;;;;;;;;;;;5097781;28;1302;-69
2023/01/02 03:46:17;;;;;;;;;;;;;;;;;;5115215;28;864;-69
2023/01/02 03:49:03;;;;;;;;;;;;;;;;;;5114801;28;1910;-69
2023/01/02 03:51:28;;;;;;;;;;;;;;;;;;5095753;28;1428;-69
2023/01/02 03:53:54;;;;;;;;;;;;;;;;;;5096754;28;1010;-69
2023/01/02 03:56:30;;;;;;;;;;;;;;;;;;5115344;28;824;-69
2023/01/02 03:59:05;;;;;;;;;;;;;;;;;;5096499;28;1329;-69
2023/01/02 04:01:36;;;;;;;;;;;;;;;;;;5114577;28;1050;-69
2023/01/02 04:04:20;;;;;;;;;;;;;;;;;;5096218;28;1477;-69
2023/01/02 04:06:48;;;;;;;;;;;;;;;;;;5096304;28;1226;-69
2023/01/02 04:09:17;;;;;;;;;;;;;;;;;;5096244;28;1930;-69
2023/01/02 04:11:45;;;;;;;;;;;;;;;;;;5095800;28;1158;-69
2023/01/02 04:14:16;;;;;;;;;;;;;;;;;;5096256;28;1230;-69
2023/01/02 04:16:43;;;;;;;;;;;;;;;;;;5096320;28;1261;-76
2023/01/02 04:19:12;;;;;;;;;;;;;;;;;;5114492;28;1086;-76
2023/01/02 04:21:39;;;;;;;;;;;;;;;;;;5114638;28;833;-76
2023/01/02 04:24:09;;;;;;;;;;;;;;;;;;5114738;28;999;-79
2023/01/02 04:26:38;;;;;;;;;;;;;;;;;;5096194;28;1326;-79
2023/01/02 04:29:03;;;;;;;;;;;;;;;;;;5096184;28;1985;-76
2023/01/02 04:31:44;;;;;;;;;;;;;;;;;;5097937;28;972;-79
2023/01/02 04:34:12;;;;;;;;;;;;;;;;;;5096020;28;1362;-78
2023/01/02 04:36:38;;;;;;;;;;;;;;;;;;5114555;28;1007;-78
2023/01/02 04:39:04;;;;;;;;;;;;;;;;;;5095853;28;1337;-78
2023/01/02 04:41:30;;;;;;;;;;;;;;;;;;5079086;28;1450;-78
2023/01/02 04:43:55;;;;;;;;;;;;;;;;;;5113950;28;786;-78
2023/01/02 04:46:21;;;;;;;;;;;;;;;;;;5114239;28;951;-78
2023/01/02 04:48:47;;;;;;;;;;;;;;;;;;5113614;28;1910;-78
2023/01/02 04:51:12;;;;;;;;;;;;;;;;;;5114210;28;765;-78
2023/01/02 04:53:37;;;;;;;;;;;;;;;;;;5079300;28;1141;-78
2023/01/02 04:56:03;;;;;;;;;;;;;;;;;;5095974;28;1178;-78
2023/01/02 04:58:28;;;;;;;;;;;;;;;;;;5095647;28;1187;-78
2023/01/02 05:00:53;;;;;;;;;;;;;;;;;;5079382;28;1330;-78
2023/01/02 05:03:19;;;;;;;;;;;;;;;;;;5114296;28;824;-78
2023/01/02 05:05:44;;;;;;;;;;;;;;;;;;5078942;28;1426;-78
2023/01/02 05:08:09;;;;;;;;;;;;;;;;;;5095963;28;1910;-78
2023/01/02 05:10:34;;;;;;;;;;;;;;;;;;5114273;28;891;-78
2023/01/02 05:13:00;;;;;;;;;;;;;;;;;;5079253;28;1171;-78
2023/01/02 05:15:25;;;;;;;;;;;;;;;;;;5078263;28;1247;-78
2023/01/02 05:17:51;;;;;;;;;;;;;;;;;;5094944;28;832;-78
2023/01/02 05:20:16;;;;;;;;;;;;;;;;;;5078053;28;1203;-78
2023/01/02 05:25:26;;;;;;;;;;;;;;;;;;5113852;28;963;-78
2023/01/02 05:27:53;;;;;;;;;;;;;;;;;;5094611;28;1893;-78
2023/01/02 05:30:18;;;;;;;;;;;;;;;;;;5095441;28;1069;-78
2023/01/02 05:32:44;;;;;;;;;;;;;;;;;;5094799;28;1183;-78
2023/01/02 05:35:09;;;;;;;;;;;;;;;;;;5095216;28;1167;-77
2023/01/02 05:37:34;;;;;;;;;;;;;;;;;;5113183;28;818;-78
2023/01/02 05:40:00;;;;;;;;;;;;;;;;;;5094915;28;908;-78
2023/01/02 05:42:25;;;;;;;;;;;;;;;;;;5113251;28;877;-78
2023/01/02 05:44:51;;;;;;;;;;;;;;;;;;5112743;28;828;-70
2023/01/02 05:47:16;;;;;;;;;;;;;;;;;;5093256;28;1906;-70
2023/01/02 05:49:41;;;;;;;;;;;;;;;;;;5094347;28;1310;-70
2023/01/02 05:52:07;;;;;;;;;;;;;;;;;;5094800;28;836;-71
2023/01/02 05:54:32;;;;;;;;;;;;;;;;;;5094344;28;813;-70
2023/01/02 05:56:57;;;;;;;;;;;;;;;;;;5094088;28;1253;-70
2023/01/02 05:59:22;;;;;;;;;;;;;;;;;;5077349;28;1340;-70
2023/01/02 06:01:48;;;;;;;;;;;;;;;;;;5077152;28;1313;-71
2023/01/02 06:04:13;;;;;;;;;;;;;;;;;;5094578;28;801;-70
2023/01/02 06:06:39;;;;;;;;;;;;;;;;;;5077535;28;1293;-70
2023/01/02 06:09:05;;;;;;;;;;;;;;;;;;5111963;28;1969;-70
2023/01/02 06:11:30;;;;;;;;;;;;;;;;;;5094308;28;1035;-70
2023/01/02 06:13:56;;;;;;;;;;;;;;;;;;5111862;28;833;-70
2023/01/02 06:16:22;;;;;;;;;;;;;;;;;;5112054;28;920;-70
2023/01/02 06:18:47;;;;;;;;;;;;;;;;;;5112642;28;777;-70
2023/01/02 06:21:14;;;;;;;;;;;;;;;;;;5076962;28;1147;-70
2023/01/02 06:23:39;;;;;;;;;;;;;;;;;;5094019;28;1275;-70
2023/01/02 06:26:06;;;;;;;;;;;;;;;;;;5112188;28;864;-70
2023/01/02 06:28:32;;;;;;;;;;;;;;;;;;5094273;28;1897;-70
2023/01/02 06:31:07;;;;;;;;;;;;;;;;;;5093281;28;1250;-70
2023/01/02 06:33:32;;;;;;;;;;;;;;;;;;5093723;28;1183;-70
2023/01/02 06:35:58;;;;;;;;;;;;;;;;;;5093364;28;1175;-70
2023/01/02 06:38:24;;;;;;;;;;;;;;;;;;5112051;28;907;-70
2023/01/02 06:40:53;;;;;;;;;;;;;;;;;;5093126;28;1370;-71
2023/01/02 06:43:18;;;;;;;;;;;;;;;;;;5111715;28;895;-71
2023/01/02 06:45:43;;;;;;;;;;;;;;;;;;5093185;28;1286;-70
2023/01/02 06:48:08;;;;;;;;;;;;;;;;;;5111494;28;2370;-70
2023/01/02 06:50:35;;;;;;;;;;;;;;;;;;5076446;28;1331;-70
2023/01/02 06:53:00;;;;;;;;;;;;;;;;;;5111287;28;810;-70
2023/01/02 06:55:25;;;;;;;;;;;;;;;;;;5094038;28;1007;-71
2023/01/02 06:57:50;;;;;;;;;;;;;;;;;;5075949;28;1209;-71
2023/01/02 07:00:17;;;;;;;;;;;;;;;;;;5093508;28;991;-71
2023/01/02 07:02:42;;;;;;;;;;;;;;;;;;5093982;28;886;-70
2023/01/02 07:05:07;;;;;;;;;;;;;;;;;;5112801;28;911;-70
2023/01/02 07:07:33;;;;;;;;;;;;;;;;;;5111814;28;1910;-70
2023/01/02 07:09:58;;;;;;;;;;;;;;;;;;5077100;28;1168;-70
2023/01/02 07:12:23;;;;;;;;;;;;;;;;;;5093655;28;1247;-70
2023/01/02 07:14:48;;;;;;;;;;;;;;;;;;5111727;28;887;-70
2023/01/02 07:17:13;;;;;;;;;;;;;;;;;;5111594;28;904;-70
2023/01/02 07:19:39;;;;;;;;;;;;;;;;;;5093716;28;1195;-70
2023/01/02 07:22:04;;;;;;;;;;;;;;;;;;5076442;28;1121;-71
2023/01/02 07:24:29;;;;;;;;;;;;;;;;;;5093607;28;1206;-70
2023/01/02 07:26:55;;;;;;;;;;;;;;;;;;5111519;28;959;-70
2023/01/02 07:29:20;;;;;;;;;;;;;;;;;;5111644;28;1953;-70
2023/01/02 07:31:45;;;;;;;;;;;;;;;;;;5111612;28;1031;-70
2023/01/02 07:34:10;;;;;;;;;;;;;;;;;;5093965;28;880;-70
2023/01/02 07:36:35;;;;;;;;;;;;;;;;;;5093787;28;849;-70
2023/01/02 07:39:01;;;;;;;;;;;;;;;;;;5111897;28;860;-70
2023/01/02 07:41:26;;;;;;;;;;;;;;;;;;5093964;28;1436;-70
2023/01/02 07:43:53;;;;;;;;;;;;;;;;;;5112311;28;918;-70
2023/01/02 07:46:18;;;;;;;;;;;;;;;;;;5111771;28;829;-70
2023/01/02 07:48:44;;;;;;;;;;;;;;;;;;5111933;28;1914;-70
2023/01/02 07:51:10;;;;;;;;;;;;;;;;;;5111598;28;959;-70
2023/01/02 07:53:37;;;;;;;;;;;;;;;;;;5111855;28;900;-70
2023/01/02 07:56:02;;;;;;;;;;;;;;;;;;5111399;28;840;-70
2023/01/02 07:58:28;;;;;;;;;;;;;;;;;;5111858;28;809;-70
2023/01/02 08:00:54;;;;;;;;;;;;;;;;;;5092886;28;1298;-69
2023/01/02 08:03:20;;;;;;;;;;;;;;;;;;5111358;28;809;-70
2023/01/02 08:05:45;;;;;;;;;;;;;;;;;;5093037;28;1349;-69
2023/01/02 08:08:10;;;;;;;;;;;;;;;;;;5093011;28;1951;-69
2023/01/02 08:10:36;;;;;;;;;;;;;;;;;;5095292;28;1113;-69
2023/01/02 08:13:03;;;;;;;;;;;;;;;;;;5114828;28;844;-71
2023/01/02 08:15:28;;;;;;;;;;;;;;;;;;5096566;28;1341;-70
2023/01/02 08:17:54;;;;;;;;;;;;;;;;;;5115017;28;900;-70
2023/01/02 08:20:20;;;;;;;;;;;;;;;;;;5115438;28;880;-70
2023/01/02 08:22:45;;;;;;;;;;;;;;;;;;5096307;28;1211;-70
2023/01/02 08:25:10;;;;;;;;;;;;;;;;;;5114674;28;941;-70
2023/01/02 08:27:35;;;;;;;;;;;;;;;;;;5115327;28;1905;-70
2023/01/02 08:30:01;;;;;;;;;;;;;;;;;;5079144;28;1228;-70
2023/01/02 08:32:26;;;;;;;;;;;;;;;;;;5096370;28;1235;-70
2023/01/02 08:34:51;;;;;;;;;;;;;;;;;;5095937;28;1325;-70
2023/01/02 08:37:17;;;;;;;;;;;;;;;;;;5096221;28;873;-70
2023/01/02 08:39:42;;;;;;;;;;;;;;;;;;5079341;28;1334;-70
2023/01/02 08:42:07;;;;;;;;;;;;;;;;;;5096015;28;939;-70
2023/01/02 08:44:36;;;;;;;;;;;;;;;;;;5114642;28;817;-70
2023/01/02 08:47:02;;;;;;;;;;;;;;;;;;5078882;28;1228;-70
2023/01/02 08:49:28;;;;;;;;;;;;;;;;;;5114438;28;1983;-70
2023/01/02 08:51:53;;;;;;;;;;;;;;;;;;5079437;28;1470;-70
2023/01/02 08:54:18;;;;;;;;;;;;;;;;;;5096028;28;1377;-70
2023/01/02 08:56:44;;;;;;;;;;;;;;;;;;5078977;28;1192;-70
2023/01/02 08:59:10;;;;;;;;;;;;;;;;;;5096320;28;828;-70
2023/01/02 09:01:37;;;;;;;;;;;;;;;;;;5096947;28;1120;-70
2023/01/02 09:04:02;;;;;;;;;;;;;;;;;;5095832;28;1190;-70
2023/01/02 09:06:29;;;;;;;;;;;;;;;;;;5114940;28;754;-70
2023/01/02 09:08:56;;;;;;;;;;;;;;;;;;5095751;28;1966;-70
2023/01/02 09:11:23;;;;;;;;;;;;;;;;;;5096786;28;845;-70
2023/01/02 09:13:48;;;;;;;;;;;;;;;;;;5113938;28;891;-70
2023/01/02 09:16:14;;;;;;;;;;;;;;;;;;5113997;28;892;-70
2023/01/02 09:18:39;;;;;;;;;;;;;;;;;;5114412;28;864;-70
2023/01/02 09:21:05;;;;;;;;;;;;;;;;;;5112183;28;1021;-70
2023/01/02 09:23:31;;;;;;;;;;;;;;;;;;5095448;28;1084;-71
2023/01/02 09:25:59;;;;;;;;;;;;;;;;;;5095831;28;1548;-71
2023/01/02 09:28:25;;;;;;;;;;;;;;;;;;5095889;28;1914;-81
2023/01/02 09:30:50;;;;;;;;;;;;;;;;;;5113455;28;1124;-81
2023/01/02 09:33:15;;;;;;;;;;;;;;;;;;5113286;28;840;-81
2023/01/02 09:35:40;;;;;;;;;;;;;;;;;;5095509;28;1318;-72
2023/01/02 09:38:06;;;;;;;;;;;;;;;;;;5078145;28;1177;-71
2023/01/02 09:40:32;;;;;;;;;;;;;;;;;;5095271;28;1367;-72
2023/01/02 09:42:58;;;;;;;;;;;;;;;;;;5077378;28;1397;-71
2023/01/02 09:45:23;;;;;;;;;;;;;;;;;;5094698;28;1150;-71
2023/01/02 09:47:49;;;;;;;;;;;;;;;;;;5113430;28;1971;-71
2023/01/02 09:50:20;;;;;;;;;;;;;;;;;;5077808;28;1227;-71
2023/01/02 09:52:52;;;;;;;;;;;;;;;;;;5094501;28;1310;-71
2023/01/02 09:55:26;;;;;;;;;;;;;;;;;;5094141;28;1204;-71
2023/01/02 09:58:09;;;;;;;;;;;;;;;;;;5094552;28;1404;-71
2023/01/02 10:00:37;;;;;;;;;;;;;;;;;;5094396;28;1464;-71
2023/01/02 10:03:21;;;;;;;;;;;;;;;;;;5094082;28;1242;-71
2023/01/02 10:05:57;;;;;;;;;;;;;;;;;;5112701;28;986;-71
2023/01/02 10:08:29;;;;;;;;;;;;;;;;;;5094222;28;2072;-71
2023/01/02 10:10:55;;;;;;;;;;;;;;;;;;5112741;28;921;-71
2023/01/02 10:13:20;;;;;;;;;;;;;;;;;;5093947;28;1313;-71
2023/01/02 10:15:47;;;;;;;;;;;;;;;;;;5094121;28;1226;-71
2023/01/02 10:18:15;;;;;;;;;;;;;;;;;;5112706;28;920;-71
2023/01/02 10:20:43;;;;;;;;;;;;;;;;;;5094814;28;1282;-71
2023/01/02 10:23:18;;;;;;;;;;;;;;;;;;5094020;28;1167;-71
2023/01/02 10:25:53;;;;;;;;;;;;;;;;;;5094710;28;1183;-70
2023/01/02 10:28:40;;;;;;;;;;;;;;;;;;5094290;28;1921;-71
2023/01/02 10:31:09;;;;;;;;;;;;;;;;;;5111718;28;1134;-70
2023/01/02 10:33:50;;;;;;;;;;;;;;;;;;5111708;28;824;-71
2023/01/02 10:36:25;;;;;;;;;;;;;;;;;;5112554;28;840;-71
2023/01/02 10:38:52;;;;;;;;;;;;;;;;;;5112855;28;883;-71
2023/01/02 10:41:17;;;;;;;;;;;;;;;;;;5093581;28;1301;-71
2023/01/02 10:43:46;;;;;;;;;;;;;;;;;;5094190;28;920;-70
2023/01/02 10:46:11;;;;;;;;;;;;;;;;;;5093755;28;1144;-71
2023/01/02 10:48:37;;;;;;;;;;;;;;;;;;5076599;28;1925;-71
2023/01/02 10:51:05;;;;;;;;;;;;;;;;;;5093290;28;967;-71
2023/01/02 10:53:32;;;;;;;;;;;;;;;;;;5112006;28;906;-71
2023/01/02 10:56:06;;;;;;;;;;;;;;;;;;5111807;28;940;-71
2023/01/02 10:58:32;;;;;;;;;;;;;;;;;;5112005;28;887;-71
2023/01/02 11:01:05;;;;;;;;;;;;;;;;;;5093160;28;1179;-71
2023/01/02 11:03:30;;;;;;;;;;;;;;;;;;5093447;28;1282;-71
2023/01/02 11:05:56;;;;;;;;;;;;;;;;;;5093344;28;1322;-71
2023/01/02 11:08:23;;;;;;;;;;;;;;;;;;5092881;28;1969;-71
2023/01/02 11:10:49;;;;;;;;;;;;;;;;;;5093434;28;1481;-71
2023/01/02 11:13:16;;;;;;;;;;;;;;;;;;5111498;28;946;-71
2023/01/02 11:15:52;;;;;;;;;;;;;;;;;;5111926;28;908;-71
2023/01/02 11:18:24;;;;;;;;;;;;;;;;;;5111461;28;880;-71
2023/01/02 11:20:52;;;;;;;;;;;;;;;;;;5111977;28;793;-71
2023/01/02 11:23:20;;;;;;;;;;;;;;;;;;5111538;28;1022;-71
2023/01/02 11:25:46;;;;;;;;;;;;;;;;;;5112314;28;919;-71
2023/01/02 11:28:17;;;;;;;;;;;;;;;;;;5093004;28;1886;-71
2023/01/02 11:31:02;;;;;;;;;;;;;;;;;;5111620;28;1289;-71
2023/01/02 11:33:29;;;;;;;;;;;;;;;;;;5111404;28;923;-71
2023/01/02 11:36:03;;;;;;;;;;;;;;;;;;5111382;28;900;-71
2023/01/02 11:38:40;;;;;;;;;;;;;;;;;;5111539;28;932;-71
2023/01/02 11:41:19;;;;;;;;;;;;;;;;;;5092820;28;1068;-71
2023/01/02 11:43:50;;;;;;;;;;;;;;;;;;5111852;28;959;-71
2023/01/02 11:46:36;;;;;;;;;;;;;;;;;;5097244;28;1337;-71
2023/01/02 11:49:12;;;;;;;;;;;;;;;;;;5097256;28;1979;-70
2023/01/02 11:51:38;;;;;;;;;;;;;;;;;;5115989;28;1545;-70
2023/01/02 11:54:08;;;;;;;;;;;;;;;;;;5096838;28;1295;-71
2023/01/02 11:56:35;;;;;;;;;;;;;;;;;;5114991;28;959;-70
2023/01/02 11:59:00;;;;;;;;;;;;;;;;;;5099936;28;1346;-71
2023/01/02 12:01:28;;;;;;;;;;;;;;;;;;5114547;28;872;-71
2023/01/02 12:03:55;;;;;;;;;;;;;;;;;;5114298;28;1129;-71
2023/01/02 12:06:22;;;;;;;;;;;;;;;;;;5095636;28;892;-70
2023/01/02 12:08:54;;;;;;;;;;;;;;;;;;5095339;28;1893;-72
2023/01/02 12:11:22;;;;;;;;;;;;;;;;;;5096698;28;1363;-72
2023/01/02 12:14:06;;;;;;;;;;;;;;;;;;5097117;28;1301;-72
2023/01/02 12:16:41;;;;;;;;;;;;;;;;;;5115326;28;979;-71
2023/01/02 12:19:15;;;;;;;;;;;;;;;;;;5096987;28;1219;-71
2023/01/02 12:21:47;;;;;;;;;;;;;;;;;;5115506;28;900;-71
2023/01/02 12:24:21;;;;;;;;;;;;;;;;;;5115066;28;1065;-71
2023/01/02 12:27:05;;;;;;;;;;;;;;;;;;5114885;28;860;-71
2023/01/02 12:29:37;;;;;;;;;;;;;;;;;;5096544;28;1969;-71
2023/01/02 12:32:05;;;;;;;;;;;;;;;;;;5096763;28;1159;-81
2023/01/02 12:34:39;;;;;;;;;;;;;;;;;;5116873;28;1057;-81
2023/01/02 12:37:20;;;;;;;;;;;;;;;;;;5097478;28;1349;-81
2023/01/02 12:39:58;;;;;;;;;;;;;;;;;;5098324;28;1222;-82
2023/01/02 12:42:27;;;;;;;;;;;;;;;;;;5118325;28;896;-82
2023/01/02 12:44:52;;;;;;;;;;;;;;;;;;5100731;28;1341;-82
2023/01/02 12:47:24;;;;;;;;;;;;;;;;;;5100109;28;1334;-82
2023/01/02 12:50:16;;;;;;;;;;;;;;;;;;5103924;28;1919;-82
2023/01/02 12:52:50;;;;;;;;;;;;;;;;;;5116824;28;1003;-82
2023/01/02 12:55:34;;;;;;;;;;;;;;;;;;5114481;28;899;-80
2023/01/02 12:58:07;;;;;;;;;;;;;;;;;;5114923;28;844;-72
2023/01/02 13:00:51;;;;;;;;;;;;;;;;;;5113896;28;879;-72
2023/01/02 13:03:22;;;;;;;;;;;;;;;;;;5095595;28;1199;-71
2023/01/02 13:05:51;;;;;;;;;;;;;;;;;;5113975;28;833;-72
2023/01/02 13:08:16;;;;;;;;;;;;;;;;;;5095767;28;1947;-72
2023/01/02 13:10:42;;;;;;;;;;;;;;;;;;5114334;28;848;-71
2023/01/02 13:13:08;;;;;;;;;;;;;;;;;;5114282;28;821;-71
2023/01/02 13:15:35;;;;;;;;;;;;;;;;;;5095583;28;1215;-71
2023/01/02 13:18:22;;;;;;;;;;;;;;;;;;5113912;28;761;-72
2023/01/02 13:21:04;;;;;;;;;;;;;;;;;;5114193;28;836;-72
2023/01/02 13:23:39;;;;;;;;;;;;;;;;;;5114404;28;932;-72
2023/01/02 13:26:12;;;;;;;;;;;;;;;;;;5114120;28;829;-72
2023/01/02 13:28:56;;;;;;;;;;;;;;;;;;5095048;28;1968;-72
2023/01/02 13:31:25;;;;;;;;;;;;;;;;;;5112964;28;1112;-72
2023/01/02 13:33:51;;;;;;;;;;;;;;;;;;5095827;28;1281;-71
2023/01/02 13:36:25;;;;;;;;;;;;;;;;;;5095068;28;1286;-71
2023/01/02 13:38:57;;;;;;;;;;;;;;;;;;5095753;28;1210;-72
2023/01/02 13:41:23;;;;;;;;;;;;;;;;;;5113381;28;951;-72
2023/01/02 13:43:51;;;;;;;;;;;;;;;;;;5095899;28;872;-72
2023/01/02 13:46:30;;;;;;;;;;;;;;;;;;5095079;28;1438;-72
2023/01/02 13:49:01;;;;;;;;;;;;;;;;;;5095191;28;1890;-72
2023/01/02 13:51:34;;;;;;;;;;;;;;;;;;5113215;28;584;-72
2023/01/02 13:54:06;;;;;;;;;;;;;;;;;;5095235;28;1282;-72
2023/01/02 13:56:31;;;;;;;;;;;;;;;;;;5094905;28;1286;-72
2023/01/02 13:59:01;;;;;;;;;;;;;;;;;;5113316;28;853;-72
2023/01/02 14:01:31;;;;;;;;;;;;;;;;;;5077391;28;1298;-72
2023/01/02 14:04:06;;;;;;;;;;;;;;;;;;5094436;28;1159;-73
2023/01/02 14:06:33;;;;;;;;;;;;;;;;;;5112811;28;825;-72
2023/01/02 14:09:05;;;;;;;;;;;;;;;;;;5093565;28;1902;-73
2023/01/02 14:11:44;;;;;;;;;;;;;;;;;;5113063;28;892;-72
2023/01/02 14:14:12;;;;;;;;;;;;;;;;;;5094342;28;1257;-72
2023/01/02 14:17:01;;;;;;;;;;;;;;;;;;5112393;28;876;-72
2023/01/02 14:19:26;;;;;;;;;;;;;;;;;;5093666;28;1193;-72
2023/01/02 14:21:59;;;;;;;;;;;;;;;;;;5077263;28;1220;-72
2023/01/02 14:24:37;;;;;;;;;;;;;;;;;;5112300;28;1002;-72
2023/01/02 14:27:05;;;;;;;;;;;;;;;;;;5094001;28;1456;-72
2023/01/02 14:29:38;;;;;;;;;;;;;;;;;;5093558;28;1969;-71
2023/01/02 14:32:27;;;;;;;;;;;;;;;;;;5093929;28;1357;-72
2023/01/02 14:34:54;;;;;;;;;;;;;;;;;;5082748;28;1148;-72
2023/01/02 14:37:26;;;;;;;;;;;;;;;;;;5110699;28;860;-73
2023/01/02 14:39:51;;;;;;;;;;;;;;;;;;5093721;28;1211;-72
2023/01/02 14:45:29;;;;;;;;;;;;;;;;;;5048583;28;1208;-72
2023/01/02 14:47:59;;;;;;;;;;;;;;;;;;5032091;28;1906;-72
2023/01/02 14:50:31;;;;;;;;;;;;;;;;;;5072952;28;1319;-71
2023/01/02 14:53:02;;;;;;;;;;;;;;;;;;5093401;28;1250;-72
2023/01/02 14:55:29;;;;;;;;;;;;;;;;;;5093811;28;1412;-72
2023/01/02 14:57:55;;;;;;;;;;;;;;;;;;5094181;28;1199;-72
2023/01/02 15:00:24;;;;;;;;;;;;;;;;;;5093993;28;1191;-72
2023/01/02 15:02:53;;;;;;;;;;;;;;;;;;5094132;28;1211;-72
2023/01/02 15:05:27;;;;;;;;;;;;;;;;;;5094138;28;1361;-72
2023/01/02 15:07:54;;;;;;;;;;;;;;;;;;5093658;28;2019;-71
2023/01/02 15:10:21;;;;;;;;;;;;;;;;;;5112857;28;991;-71
2023/01/02 15:13:08;;;;;;;;;;;;;;;;;;5112619;28;845;-71
2023/01/02 15:15:36;;;;;;;;;;;;;;;;;;5112291;28;786;-71
2023/01/02 15:18:10;;;;;;;;;;;;;;;;;;5094543;28;1223;-71
2023/01/02 15:20:36;;;;;;;;;;;;;;;;;;5097157;28;1198;-81
2023/01/02 15:23:01;;;;;;;;;;;;;;;;;;5103830;27;1226;-80
2023/01/02 15:25:35;;;;;;;;;;;;;;;;;;5118219;27;969;-81
2023/01/02 15:28:00;;;;;;;;;;;;;;;;;;5118145;27;1943;-81
2023/01/02 15:30:32;;;;;;;;;;;;;;;;;;5136560;27;1076;-81
2023/01/02 15:32:57;;;;;;;;;;;;;;;;;;5136640;27;908;-81
2023/01/02 15:35:25;;;;;;;;;;;;;;;;;;5136759;27;833;-80
2023/01/02 15:37:50;;;;;;;;;;;;;;;;;;5117874;27;1341;-81
2023/01/02 15:40:19;;;;;;;;;;;;;;;;;;5101034;27;1351;-81
2023/01/02 15:45:29;;;;;;;;;;;;;;;;;;5121192;27;1000;-80
2023/01/02 15:47:56;;;;;;;;;;;;;;;;;;5117883;27;1906;-80
2023/01/02 15:50:25;;;;;;;;;;;;;;;;;;5136049;27;892;-80
2023/01/02 15:52:57;;;;;;;;;;;;;;;;;;5117785;27;1416;-81
2023/01/02 15:55:22;;;;;;;;;;;;;;;;;;5136257;27;817;-80
2023/01/02 15:57:52;;;;;;;;;;;;;;;;;;5135990;27;856;-80
2023/01/02 16:00:29;;;;;;;;;;;;;;;;;;5117933;27;1313;-81
2023/01/02 16:02:54;;;;;;;;;;;;;;;;;;5117741;27;1289;-81
2023/01/02 16:05:20;;;;;;;;;;;;;;;;;;5117526;27;1163;-81
2023/01/02 16:07:49;;;;;;;;;;;;;;;;;;5117479;27;1957;-80
2023/01/02 16:10:17;;;;;;;;;;;;;;;;;;5135867;27;955;-80
2023/01/02 16:12:42;;;;;;;;;;;;;;;;;;5117236;27;1092;-81
2023/01/02 16:15:07;;;;;;;;;;;;;;;;;;5100214;27;1317;-80
2023/01/02 16:17:38;;;;;;;;;;;;;;;;;;5135688;27;1314;-70
2023/01/02 16:20:10;;;;;;;;;;;;;;;;;;5117544;27;1282;-71
2023/01/02 16:22:41;;;;;;;;;;;;;;;;;;5117092;27;1381;-70
2023/01/02 16:25:12;;;;;;;;;;;;;;;;;;5135337;27;885;-71
2023/01/02 16:27:49;;;;;;;;;;;;;;;;;;5117049;27;1409;-69
2023/01/02 16:30:41;;;;;;;;;;;;;;;;;;5134675;27;1144;-69
2023/01/02 16:33:25;;;;;;;;;;;;;;;;;;5113013;27;1211;-70
2023/01/02 16:35:51;;;;;;;;;;;;;;;;;;5135400;27;867;-70
2023/01/02 16:38:25;;;;;;;;;;;;;;;;;;5135423;27;832;-70
2023/01/02 16:40:57;;;;;;;;;;;;;;;;;;5135482;27;867;-70
2023/01/02 16:43:22;;;;;;;;;;;;;;;;;;5135731;27;868;-70
2023/01/02 16:45:49;;;;;;;;;;;;;;;;;;5116911;27;1162;-70
2023/01/02 16:48:19;;;;;;;;;;;;;;;;;;5135284;27;1952;-70
2023/01/02 16:50:45;;;;;;;;;;;;;;;;;;5117269;27;1364;-70
2023/01/02 16:53:36;;;;;;;;;;;;;;;;;;5135585;27;837;-70
2023/01/02 16:56:02;;;;;;;;;;;;;;;;;;5112487;27;1325;-70
2023/01/02 16:58:28;;;;;;;;;;;;;;;;;;5134430;27;880;-70
2023/01/02 17:00:54;;;;;;;;;;;;;;;;;;5134893;27;864;-70
2023/01/02 17:03:22;;;;;;;;;;;;;;;;;;5116122;27;1368;-70
2023/01/02 17:05:49;;;;;;;;;;;;;;;;;;5116159;27;1444;-70
2023/01/02 17:08:14;;;;;;;;;;;;;;;;;;5115909;27;1976;-70
2023/01/02 17:10:40;;;;;;;;;;;;;;;;;;5134227;27;837;-69
2023/01/02 17:13:05;;;;;;;;;;;;;;;;;;5115446;27;849;-70
2023/01/02 17:15:31;;;;;;;;;;;;;;;;;;5099132;27;1525;-70
2023/01/02 17:17:56;;;;;;;;;;;;;;;;;;5115770;27;801;-70
2023/01/02 17:20:22;;;;;;;;;;;;;;;;;;5134168;27;927;-70
2023/01/02 17:22:47;;;;;;;;;;;;;;;;;;5116028;27;825;-69
2023/01/02 17:25:13;;;;;;;;;;;;;;;;;;5115747;27;1308;-70
2023/01/02 17:27:39;;;;;;;;;;;;;;;;;;5134668;27;867;-70